sensor_id;sensor_type;location;lat;lon;timestamp;pressure;altitude;pressure_sealevel;temperature;humidity
10518;BME280;5307;42.548;22.968;2023-11-21T00:00:56;93682.00;;;2.78;100.00
10518;BME280;5307;42.548;22.968;2023-11-21T00:03:25;93680.50;;;2.77;100.00
10518;BME280;5307;42.548;22.968;2023-11-21T00:05:53;93680.44;;;2.81;100.00
10518;BME280;5307;42.548;22.968;2023-11-21T00:08:20;93677.63;;;2.57;100.00
10518;BME280;5307;42.548;22.968;2023-11-21T00:10:47;93667.50;;;2.68;100.00
10518;BME280;5307;42.548;22.968;2023-11-21T00:13:13;93687.59;;;2.60;100.00
10518;BME280;5307;42.548;22.968;2023-11-21T00:15:40;93699.59;;;2.56;100.00
10518;BME280;5307;42.548;22.968;2023-11-21T00:18:07;93700.00;;;2.51;100.00
10518;BME280;5307;42.548;22.968;2023-11-21T00:20:35;93696.56;;;2.47;100.00
10518;BME280;5307;42.548;22.968;2023-11-21T00:23:02;93700.81;;;2.48;100.00
10518;BME280;5307;42.548;22.968;2023-11-21T00:25:29;93706.31;;;2.33;100.00
10518;BME280;5307;42.548;22.968;2023-11-21T00:27:56;93707.44;;;2.36;100.00
10518;BME280;5307;42.548;22.968;2023-11-21T00:30:23;93709.44;;;2.28;100.00
10518;BME280;5307;42.548;22.968;2023-11-21T00:32:50;93700.19;;;2.29;100.00
10518;BME280;5307;42.548;22.968;2023-11-21T00:35:16;93701.38;;;2.28;100.00
10518;BME280;5307;42.548;22.968;2023-11-21T00:37:44;93702.41;;;2.38;100.00
10518;BME280;5307;42.548;22.968;2023-11-21T00:40:12;93703.97;;;2.35;100.00
10518;BME280;5307;42.548;22.968;2023-11-21T00:42:40;93695.63;;;2.26;100.00
10518;BME280;5307;42.548;22.968;2023-11-21T00:45:08;93703.63;;;2.33;100.00
10518;BME280;5307;42.548;22.968;2023-11-21T00:47:35;93705.22;;;2.24;100.00
10518;BME280;5307;42.548;22.968;2023-11-21T00:50:03;93699.91;;;2.17;100.00
10518;BME280;5307;42.548;22.968;2023-11-21T00:52:31;93697.63;;;2.15;100.00
10518;BME280;5307;42.548;22.968;2023-11-21T00:54:59;93697.56;;;2.22;100.00
10518;BME280;5307;42.548;22.968;2023-11-21T00:57:27;93689.75;;;2.35;100.00
10518;BME280;5307;42.548;22.968;2023-11-21T00:59:53;93684.47;;;2.21;100.00
10518;BME280;5307;42.548;22.968;2023-11-21T01:02:20;93686.84;;;2.15;100.00
10518;BME280;5307;42.548;22.968;2023-11-21T01:04:47;93687.22;;;2.17;100.00
10518;BME280;5307;42.548;22.968;2023-11-21T01:07:14;93693.38;;;2.18;100.00
10518;BME280;5307;42.548;22.968;2023-11-21T01:09:41;93688.78;;;2.11;100.00
10518;BME280;5307;42.548;22.968;2023-11-21T01:12:11;93681.13;;;2.06;100.00
10518;BME280;5307;42.548;22.968;2023-11-21T01:14:37;93690.34;;;2.08;100.00
10518;BME280;5307;42.548;22.968;2023-11-21T01:17:04;93690.75;;;2.07;100.00
10518;BME280;5307;42.548;22.968;2023-11-21T01:19:31;93702.00;;;1.95;100.00
10518;BME280;5307;42.548;22.968;2023-11-21T01:21:58;93697.34;;;2.02;100.00
10518;BME280;5307;42.548;22.968;2023-11-21T01:24:25;93701.59;;;2.00;100.00
10518;BME280;5307;42.548;22.968;2023-11-21T01:26:51;93703.13;;;2.01;100.00
10518;BME280;5307;42.548;22.968;2023-11-21T01:29:19;93700.06;;;1.99;100.00
10518;BME280;5307;42.548;22.968;2023-11-21T01:31:46;93699.72;;;1.90;100.00
10518;BME280;5307;42.548;22.968;2023-11-21T01:34:13;93701.59;;;1.96;100.00
10518;BME280;5307;42.548;22.968;2023-11-21T01:36:40;93691.22;;;1.95;100.00
10518;BME280;5307;42.548;22.968;2023-11-21T01:39:06;93693.06;;;2.05;100.00
10518;BME280;5307;42.548;22.968;2023-11-21T01:41:34;93687.44;;;1.89;100.00
10518;BME280;5307;42.548;22.968;2023-11-21T01:44:01;93679.03;;;1.79;100.00
10518;BME280;5307;42.548;22.968;2023-11-21T01:46:29;93680.16;;;1.86;100.00
10518;BME280;5307;42.548;22.968;2023-11-21T01:48:56;93676.28;;;1.87;100.00
10518;BME280;5307;42.548;22.968;2023-11-21T01:51:23;93675.94;;;1.85;100.00
10518;BME280;5307;42.548;22.968;2023-11-21T01:53:52;93672.84;;;1.83;100.00
10518;BME280;5307;42.548;22.968;2023-11-21T01:56:19;93667.44;;;1.86;100.00
10518;BME280;5307;42.548;22.968;2023-11-21T01:58:45;93671.28;;;1.89;100.00
10518;BME280;5307;42.548;22.968;2023-11-21T02:01:13;93677.47;;;1.86;100.00
10518;BME280;5307;42.548;22.968;2023-11-21T02:03:41;93670.41;;;2.02;100.00
10518;BME280;5307;42.548;22.968;2023-11-21T02:06:08;93663.97;;;1.89;100.00
10518;BME280;5307;42.548;22.968;2023-11-21T02:08:35;93668.03;;;2.08;100.00
10518;BME280;5307;42.548;22.968;2023-11-21T02:11:03;93668.16;;;1.94;100.00
10518;BME280;5307;42.548;22.968;2023-11-21T02:13:30;93672.84;;;1.86;100.00
10518;BME280;5307;42.548;22.968;2023-11-21T02:15:57;93672.94;;;1.72;100.00
10518;BME280;5307;42.548;22.968;2023-11-21T02:18:24;93670.53;;;1.85;100.00
10518;BME280;5307;42.548;22.968;2023-11-21T02:20:52;93672.09;;;1.78;100.00
10518;BME280;5307;42.548;22.968;2023-11-21T02:23:20;93665.50;;;1.90;100.00
10518;BME280;5307;42.548;22.968;2023-11-21T02:25:48;93662.75;;;1.97;100.00
10518;BME280;5307;42.548;22.968;2023-11-21T02:28:16;93657.34;;;2.01;100.00
10518;BME280;5307;42.548;22.968;2023-11-21T02:30:51;93665.03;;;2.02;100.00
10518;BME280;5307;42.548;22.968;2023-11-21T02:33:21;93666.88;;;2.13;100.00
10518;BME280;5307;42.548;22.968;2023-11-21T02:35:47;93661.38;;;2.23;100.00
10518;BME280;5307;42.548;22.968;2023-11-21T02:38:14;93667.09;;;2.29;100.00
10518;BME280;5307;42.548;22.968;2023-11-21T02:40:43;93674.84;;;2.23;100.00
10518;BME280;5307;42.548;22.968;2023-11-21T02:43:10;93653.28;;;2.27;100.00
10518;BME280;5307;42.548;22.968;2023-11-21T02:45:37;93640.97;;;2.22;100.00
10518;BME280;5307;42.548;22.968;2023-11-21T02:48:04;93644.06;;;2.21;100.00
10518;BME280;5307;42.548;22.968;2023-11-21T02:50:31;93654.50;;;2.19;100.00
10518;BME280;5307;42.548;22.968;2023-11-21T02:52:58;93644.78;;;2.28;100.00
10518;BME280;5307;42.548;22.968;2023-11-21T02:55:25;93639.34;;;2.32;100.00
10518;BME280;5307;42.548;22.968;2023-11-21T02:57:54;93647.63;;;2.14;100.00
10518;BME280;5307;42.548;22.968;2023-11-21T03:00:22;93656.44;;;2.15;100.00
10518;BME280;5307;42.548;22.968;2023-11-21T03:02:49;93658.25;;;2.28;100.00
10518;BME280;5307;42.548;22.968;2023-11-21T03:05:16;93650.19;;;2.28;100.00
10518;BME280;5307;42.548;22.968;2023-11-21T03:07:43;93674.81;;;2.27;100.00
10518;BME280;5307;42.548;22.968;2023-11-21T03:10:10;93678.28;;;2.27;100.00
10518;BME280;5307;42.548;22.968;2023-11-21T03:12:37;93685.56;;;2.30;100.00
10518;BME280;5307;42.548;22.968;2023-11-21T03:15:07;93676.38;;;2.24;100.00
10518;BME280;5307;42.548;22.968;2023-11-21T03:17:34;93678.56;;;2.40;100.00
10518;BME280;5307;42.548;22.968;2023-11-21T03:20:00;93668.91;;;2.43;100.00
10518;BME280;5307;42.548;22.968;2023-11-21T03:22:29;93657.09;;;2.29;100.00
10518;BME280;5307;42.548;22.968;2023-11-21T03:24:56;93666.66;;;2.34;100.00
10518;BME280;5307;42.548;22.968;2023-11-21T03:27:23;93665.66;;;2.17;100.00
10518;BME280;5307;42.548;22.968;2023-11-21T03:29:50;93650.88;;;2.36;100.00
10518;BME280;5307;42.548;22.968;2023-11-21T03:32:18;93644.13;;;2.17;100.00
10518;BME280;5307;42.548;22.968;2023-11-21T03:34:55;93640.69;;;2.13;100.00
10518;BME280;5307;42.548;22.968;2023-11-21T03:37:23;93649.94;;;2.12;100.00
10518;BME280;5307;42.548;22.968;2023-11-21T03:39:50;93642.16;;;2.21;100.00
10518;BME280;5307;42.548;22.968;2023-11-21T03:42:17;93640.97;;;2.26;100.00
10518;BME280;5307;42.548;22.968;2023-11-21T03:44:44;93632.53;;;2.20;100.00
10518;BME280;5307;42.548;22.968;2023-11-21T03:47:10;93640.63;;;2.20;100.00
10518;BME280;5307;42.548;22.968;2023-11-21T03:49:39;93641.97;;;1.98;100.00
10518;BME280;5307;42.548;22.968;2023-11-21T03:52:05;93638.91;;;1.96;100.00
10518;BME280;5307;42.548;22.968;2023-11-21T03:54:34;93639.84;;;1.75;100.00
10518;BME280;5307;42.548;22.968;2023-11-21T03:57:01;93640.34;;;1.59;100.00
10518;BME280;5307;42.548;22.968;2023-11-21T03:59:28;93641.25;;;1.90;100.00
10518;BME280;5307;42.548;22.968;2023-11-21T04:01:55;93646.84;;;2.10;100.00
10518;BME280;5307;42.548;22.968;2023-11-21T04:04:22;93656.09;;;2.09;100.00
10518;BME280;5307;42.548;22.968;2023-11-21T04:06:51;93654.97;;;2.06;100.00
10518;BME280;5307;42.548;22.968;2023-11-21T04:09:18;93658.41;;;2.11;100.00
10518;BME280;5307;42.548;22.968;2023-11-21T04:11:45;93653.13;;;1.96;100.00
10518;BME280;5307;42.548;22.968;2023-11-21T04:14:12;93645.75;;;2.04;100.00
10518;BME280;5307;42.548;22.968;2023-11-21T04:16:40;93639.25;;;2.01;100.00
10518;BME280;5307;42.548;22.968;2023-11-21T04:19:07;93633.19;;;1.90;100.00
10518;BME280;5307;42.548;22.968;2023-11-21T04:21:34;93631.25;;;1.91;100.00
10518;BME280;5307;42.548;22.968;2023-11-21T04:24:03;93629.28;;;1.98;100.00
10518;BME280;5307;42.548;22.968;2023-11-21T04:26:30;93623.56;;;1.89;100.00
10518;BME280;5307;42.548;22.968;2023-11-21T04:28:58;93631.28;;;1.87;100.00
10518;BME280;5307;42.548;22.968;2023-11-21T04:31:33;93638.50;;;2.01;100.00
10518;BME280;5307;42.548;22.968;2023-11-21T04:33:59;93644.97;;;2.07;100.00
10518;BME280;5307;42.548;22.968;2023-11-21T04:36:26;93634.63;;;2.02;100.00
10518;BME280;5307;42.548;22.968;2023-11-21T04:38:53;93633.44;;;2.06;100.00
10518;BME280;5307;42.548;22.968;2023-11-21T04:41:21;93632.34;;;2.00;100.00
10518;BME280;5307;42.548;22.968;2023-11-21T04:43:48;93617.34;;;1.96;100.00
10518;BME280;5307;42.548;22.968;2023-11-21T04:46:15;93618.22;;;1.86;100.00
10518;BME280;5307;42.548;22.968;2023-11-21T04:48:42;93631.28;;;1.87;100.00
10518;BME280;5307;42.548;22.968;2023-11-21T04:51:09;93626.91;;;2.04;100.00
10518;BME280;5307;42.548;22.968;2023-11-21T04:53:37;93632.09;;;1.84;100.00
10518;BME280;5307;42.548;22.968;2023-11-21T04:56:05;93634.69;;;1.95;100.00
10518;BME280;5307;42.548;22.968;2023-11-21T04:58:33;93639.66;;;1.96;100.00
10518;BME280;5307;42.548;22.968;2023-11-21T05:01:00;93641.59;;;1.96;100.00
10518;BME280;5307;42.548;22.968;2023-11-21T05:03:28;93635.16;;;1.83;100.00
10518;BME280;5307;42.548;22.968;2023-11-21T05:05:55;93627.84;;;1.87;100.00
10518;BME280;5307;42.548;22.968;2023-11-21T05:08:22;93628.97;;;1.89;100.00
10518;BME280;5307;42.548;22.968;2023-11-21T05:10:49;93631.34;;;1.80;100.00
10518;BME280;5307;42.548;22.968;2023-11-21T05:13:16;93632.78;;;1.92;100.00
10518;BME280;5307;42.548;22.968;2023-11-21T05:15:45;93632.84;;;1.81;100.00
10518;BME280;5307;42.548;22.968;2023-11-21T05:18:12;93646.72;;;1.83;100.00
10518;BME280;5307;42.548;22.968;2023-11-21T05:20:39;93651.81;;;1.70;100.00
10518;BME280;5307;42.548;22.968;2023-11-21T05:23:06;93657.88;;;1.78;100.00
10518;BME280;5307;42.548;22.968;2023-11-21T05:25:33;93650.53;;;1.86;100.00
10518;BME280;5307;42.548;22.968;2023-11-21T05:28:00;93650.59;;;1.75;100.00
10518;BME280;5307;42.548;22.968;2023-11-21T05:30:28;93653.34;;;1.71;100.00
10518;BME280;5307;42.548;22.968;2023-11-21T05:32:56;93658.63;;;1.86;100.00
10518;BME280;5307;42.548;22.968;2023-11-21T05:35:23;93646.75;;;1.76;100.00
10518;BME280;5307;42.548;22.968;2023-11-21T05:37:49;93659.09;;;1.73;100.00
10518;BME280;5307;42.548;22.968;2023-11-21T05:40:16;93646.03;;;1.68;100.00
10518;BME280;5307;42.548;22.968;2023-11-21T05:42:43;93656.03;;;1.71;100.00
10518;BME280;5307;42.548;22.968;2023-11-21T05:45:11;93656.41;;;1.70;100.00
10518;BME280;5307;42.548;22.968;2023-11-21T05:47:39;93643.34;;;1.68;100.00
10518;BME280;5307;42.548;22.968;2023-11-21T05:50:09;93649.47;;;1.69;100.00
10518;BME280;5307;42.548;22.968;2023-11-21T05:52:37;93645.88;;;1.90;100.00
10518;BME280;5307;42.548;22.968;2023-11-21T05:55:05;93647.13;;;1.78;100.00
10518;BME280;5307;42.548;22.968;2023-11-21T05:57:33;93651.19;;;1.97;100.00
10518;BME280;5307;42.548;22.968;2023-11-21T06:00:03;93651.19;;;1.97;100.00
10518;BME280;5307;42.548;22.968;2023-11-21T06:02:36;93640.81;;;1.99;100.00
10518;BME280;5307;42.548;22.968;2023-11-21T06:05:04;93648.06;;;2.05;100.00
10518;BME280;5307;42.548;22.968;2023-11-21T06:07:32;93648.78;;;2.13;100.00
10518;BME280;5307;42.548;22.968;2023-11-21T06:09:59;93660.25;;;2.21;100.00
10518;BME280;5307;42.548;22.968;2023-11-21T06:12:28;93651.19;;;2.00;100.00
10518;BME280;5307;42.548;22.968;2023-11-21T06:14:55;93652.06;;;1.87;100.00
10518;BME280;5307;42.548;22.968;2023-11-21T06:17:22;93657.19;;;1.70;100.00
10518;BME280;5307;42.548;22.968;2023-11-21T06:19:50;93660.06;;;1.94;100.00
10518;BME280;5307;42.548;22.968;2023-11-21T06:22:18;93661.19;;;2.00;100.00
10518;BME280;5307;42.548;22.968;2023-11-21T06:24:46;93663.84;;;2.03;100.00
10518;BME280;5307;42.548;22.968;2023-11-21T06:27:13;93669.94;;;2.15;100.00
10518;BME280;5307;42.548;22.968;2023-11-21T06:29:40;93672.59;;;2.18;100.00
10518;BME280;5307;42.548;22.968;2023-11-21T06:32:07;93671.59;;;2.43;100.00
10518;BME280;5307;42.548;22.968;2023-11-21T06:34:34;93670.78;;;2.46;100.00
10518;BME280;5307;42.548;22.968;2023-11-21T06:37:01;93666.75;;;2.64;100.00
10518;BME280;5307;42.548;22.968;2023-11-21T06:39:28;93675.28;;;2.59;100.00
10518;BME280;5307;42.548;22.968;2023-11-21T06:41:56;93680.84;;;2.79;100.00
10518;BME280;5307;42.548;22.968;2023-11-21T06:44:25;93670.25;;;2.95;100.00
10518;BME280;5307;42.548;22.968;2023-11-21T06:46:51;93670.25;;;2.95;100.00
10518;BME280;5307;42.548;22.968;2023-11-21T06:49:18;93680.91;;;3.10;100.00
10518;BME280;5307;42.548;22.968;2023-11-21T06:51:45;93674.88;;;2.98;100.00
10518;BME280;5307;42.548;22.968;2023-11-21T06:54:12;93681.09;;;2.92;100.00
10518;BME280;5307;42.548;22.968;2023-11-21T06:56:39;93679.00;;;3.07;100.00
10518;BME280;5307;42.548;22.968;2023-11-21T06:59:08;93672.97;;;2.95;100.00
10518;BME280;5307;42.548;22.968;2023-11-21T07:01:36;93677.06;;;3.07;100.00
10518;BME280;5307;42.548;22.968;2023-11-21T07:04:04;93676.94;;;3.48;100.00
10518;BME280;5307;42.548;22.968;2023-11-21T07:06:31;93672.63;;;3.54;100.00
10518;BME280;5307;42.548;22.968;2023-11-21T07:08:58;93675.19;;;3.35;100.00
10518;BME280;5307;42.548;22.968;2023-11-21T07:11:26;93683.44;;;3.24;100.00
10518;BME280;5307;42.548;22.968;2023-11-21T07:13:53;93673.44;;;3.21;100.00
10518;BME280;5307;42.548;22.968;2023-11-21T07:16:21;93677.53;;;3.33;100.00
10518;BME280;5307;42.548;22.968;2023-11-21T07:18:49;93671.91;;;3.50;100.00
10518;BME280;5307;42.548;22.968;2023-11-21T07:21:16;93678.81;;;3.51;100.00
10518;BME280;5307;42.548;22.968;2023-11-21T07:23:43;93667.06;;;3.65;100.00
10518;BME280;5307;42.548;22.968;2023-11-21T07:26:10;93673.84;;;3.77;100.00
10518;BME280;5307;42.548;22.968;2023-11-21T07:28:37;93677.88;;;3.92;100.00
10518;BME280;5307;42.548;22.968;2023-11-21T07:31:04;93678.25;;;3.94;100.00
10518;BME280;5307;42.548;22.968;2023-11-21T07:33:32;93678.50;;;4.27;100.00
10518;BME280;5307;42.548;22.968;2023-11-21T07:35:59;93671.03;;;4.34;100.00
10518;BME280;5307;42.548;22.968;2023-11-21T07:38:26;93679.31;;;4.00;100.00
10518;BME280;5307;42.548;22.968;2023-11-21T07:40:53;93685.19;;;4.18;100.00
10518;BME280;5307;42.548;22.968;2023-11-21T07:43:20;93676.56;;;4.27;100.00
10518;BME280;5307;42.548;22.968;2023-11-21T07:45:47;93676.03;;;4.36;100.00
10518;BME280;5307;42.548;22.968;2023-11-21T07:48:14;93672.47;;;4.86;100.00
10518;BME280;5307;42.548;22.968;2023-11-21T07:50:42;93666.56;;;4.91;100.00
10518;BME280;5307;42.548;22.968;2023-11-21T07:53:09;93664.41;;;5.42;100.00
10518;BME280;5307;42.548;22.968;2023-11-21T07:55:36;93663.16;;;5.46;98.58
10518;BME280;5307;42.548;22.968;2023-11-21T07:58:03;93654.84;;;5.73;97.64
10518;BME280;5307;42.548;22.968;2023-11-21T08:00:30;93655.28;;;5.88;97.60
10518;BME280;5307;42.548;22.968;2023-11-21T08:02:57;93654.72;;;5.60;97.82
10518;BME280;5307;42.548;22.968;2023-11-21T08:05:23;93661.03;;;6.10;97.86
10518;BME280;5307;42.548;22.968;2023-11-21T08:07:53;93668.50;;;5.86;97.27
10518;BME280;5307;42.548;22.968;2023-11-21T08:10:18;93668.09;;;6.69;97.34
10518;BME280;5307;42.548;22.968;2023-11-21T08:12:47;93661.75;;;7.04;96.17
10518;BME280;5307;42.548;22.968;2023-11-21T08:15:16;93658.97;;;6.46;94.28
10518;BME280;5307;42.548;22.968;2023-11-21T08:17:43;93652.81;;;6.91;95.05
10518;BME280;5307;42.548;22.968;2023-11-21T08:20:11;93650.97;;;7.01;94.09
10518;BME280;5307;42.548;22.968;2023-11-21T08:22:38;93661.19;;;6.51;92.08
10518;BME280;5307;42.548;22.968;2023-11-21T08:25:08;93649.56;;;6.96;93.00
10518;BME280;5307;42.548;22.968;2023-11-21T08:27:38;93657.84;;;6.60;93.16
10518;BME280;5307;42.548;22.968;2023-11-21T08:30:06;93653.94;;;6.61;93.86
10518;BME280;5307;42.548;22.968;2023-11-21T08:32:33;93651.81;;;6.69;93.81
10518;BME280;5307;42.548;22.968;2023-11-21T08:35:01;93642.28;;;6.48;94.19
10518;BME280;5307;42.548;22.968;2023-11-21T08:37:27;93640.09;;;6.10;94.26
10518;BME280;5307;42.548;22.968;2023-11-21T08:39:57;93623.38;;;6.28;94.82
10518;BME280;5307;42.548;22.968;2023-11-21T08:42:26;93614.91;;;6.26;95.28
10518;BME280;5307;42.548;22.968;2023-11-21T08:44:55;93608.47;;;6.81;94.80
10518;BME280;5307;42.548;22.968;2023-11-21T08:47:23;93599.81;;;6.99;94.19
10518;BME280;5307;42.548;22.968;2023-11-21T08:49:51;93596.31;;;6.86;94.39
10518;BME280;5307;42.548;22.968;2023-11-21T08:52:19;93582.78;;;6.70;94.35
10518;BME280;5307;42.548;22.968;2023-11-21T08:54:48;93591.84;;;6.79;93.57
10518;BME280;5307;42.548;22.968;2023-11-21T08:57:21;93583.53;;;6.41;93.62
10518;BME280;5307;42.548;22.968;2023-11-21T08:59:49;93589.41;;;6.98;94.78
10518;BME280;5307;42.548;22.968;2023-11-21T09:02:20;93584.53;;;7.05;93.64
10518;BME280;5307;42.548;22.968;2023-11-21T09:04:48;93577.31;;;6.86;93.71
10518;BME280;5307;42.548;22.968;2023-11-21T09:07:16;93571.91;;;6.99;94.10
10518;BME280;5307;42.548;22.968;2023-11-21T09:09:44;93567.50;;;7.05;94.93
10518;BME280;5307;42.548;22.968;2023-11-21T09:12:11;93555.03;;;6.78;94.01
10518;BME280;5307;42.548;22.968;2023-11-21T09:14:38;93546.09;;;7.07;94.64
10518;BME280;5307;42.548;22.968;2023-11-21T09:17:06;93532.75;;;7.12;94.25
10518;BME280;5307;42.548;22.968;2023-11-21T09:19:36;93527.06;;;6.94;94.15
10518;BME280;5307;42.548;22.968;2023-11-21T09:22:03;93510.38;;;7.08;95.15
10518;BME280;5307;42.548;22.968;2023-11-21T09:24:30;93504.94;;;7.08;95.34
10518;BME280;5307;42.548;22.968;2023-11-21T09:26:57;93495.81;;;7.28;95.72
10518;BME280;5307;42.548;22.968;2023-11-21T09:29:25;93510.91;;;7.29;95.60
10518;BME280;5307;42.548;22.968;2023-11-21T09:31:52;93505.16;;;7.52;95.01
10518;BME280;5307;42.548;22.968;2023-11-21T09:34:22;93499.19;;;7.44;95.16
10518;BME280;5307;42.548;22.968;2023-11-21T09:36:49;93506.03;;;7.49;95.80
10518;BME280;5307;42.548;22.968;2023-11-21T09:39:16;93503.63;;;7.51;95.54
10518;BME280;5307;42.548;22.968;2023-11-21T09:41:46;93509.19;;;7.60;94.93
10518;BME280;5307;42.548;22.968;2023-11-21T09:44:18;93505.16;;;7.52;93.94
10518;BME280;5307;42.548;22.968;2023-11-21T09:46:47;93494.19;;;7.43;92.93
10518;BME280;5307;42.548;22.968;2023-11-21T09:49:14;93498.22;;;7.51;92.77
10518;BME280;5307;42.548;22.968;2023-11-21T09:51:43;93486.69;;;7.47;92.81
10518;BME280;5307;42.548;22.968;2023-11-21T09:54:10;93480.09;;;7.83;92.07
10518;BME280;5307;42.548;22.968;2023-11-21T09:56:38;93472.28;;;7.85;92.36
10518;BME280;5307;42.548;22.968;2023-11-21T09:59:05;93474.28;;;8.06;91.95
10518;BME280;5307;42.548;22.968;2023-11-21T10:01:36;93475.22;;;7.90;91.07
10518;BME280;5307;42.548;22.968;2023-11-21T10:04:03;93471.25;;;8.04;90.92
10518;BME280;5307;42.548;22.968;2023-11-21T10:06:31;93457.03;;;8.22;89.40
10518;BME280;5307;42.548;22.968;2023-11-21T10:09:01;93453.44;;;8.25;89.19
10518;BME280;5307;42.548;22.968;2023-11-21T10:11:29;93442.53;;;8.38;88.27
10518;BME280;5307;42.548;22.968;2023-11-21T10:13:59;93441.72;;;8.50;87.27
10518;BME280;5307;42.548;22.968;2023-11-21T10:16:29;93437.19;;;8.56;85.37
10518;BME280;5307;42.548;22.968;2023-11-21T10:18:57;93430.00;;;8.62;82.28
10518;BME280;5307;42.548;22.968;2023-11-21T10:21:25;93431.50;;;8.63;80.73
10518;BME280;5307;42.548;22.968;2023-11-21T10:23:53;93429.41;;;8.67;80.14
10518;BME280;5307;42.548;22.968;2023-11-21T10:26:22;93434.53;;;8.65;79.74
10518;BME280;5307;42.548;22.968;2023-11-21T10:28:56;93421.53;;;8.60;78.92
10518;BME280;5307;42.548;22.968;2023-11-21T10:31:24;93419.41;;;8.64;78.60
10518;BME280;5307;42.548;22.968;2023-11-21T10:33:50;93425.78;;;8.70;78.85
10518;BME280;5307;42.548;22.968;2023-11-21T10:36:25;93422.97;;;8.52;78.27
10518;BME280;5307;42.548;22.968;2023-11-21T10:38:52;93427.59;;;8.64;78.57
10518;BME280;5307;42.548;22.968;2023-11-21T10:41:20;93430.00;;;8.62;78.68
10518;BME280;5307;42.548;22.968;2023-11-21T10:43:48;93435.13;;;8.60;78.83
10518;BME280;5307;42.548;22.968;2023-11-21T10:46:15;93426.69;;;8.67;79.13
10518;BME280;5307;42.548;22.968;2023-11-21T10:48:42;93425.75;;;8.61;79.13
10518;BME280;5307;42.548;22.968;2023-11-21T10:51:09;93416.84;;;8.60;79.54
10518;BME280;5307;42.548;22.968;2023-11-21T10:53:38;93413.84;;;8.68;79.92
10518;BME280;5307;42.548;22.968;2023-11-21T10:56:08;93410.22;;;8.71;80.37
10518;BME280;5307;42.548;22.968;2023-11-21T10:58:38;93398.88;;;8.72;79.80
10518;BME280;5307;42.548;22.968;2023-11-21T11:01:07;93401.66;;;8.81;78.84
10518;BME280;5307;42.548;22.968;2023-11-21T11:03:37;93393.03;;;8.83;79.31
10518;BME280;5307;42.548;22.968;2023-11-21T11:06:06;93390.16;;;8.86;79.57
10518;BME280;5307;42.548;22.968;2023-11-21T11:08:37;93390.31;;;8.83;79.12
10518;BME280;5307;42.548;22.968;2023-11-21T11:11:04;93385.31;;;8.81;78.17
10518;BME280;5307;42.548;22.968;2023-11-21T11:13:31;93380.63;;;8.82;79.01
10518;BME280;5307;42.548;22.968;2023-11-21T11:16:00;93377.47;;;8.83;81.43
10518;BME280;5307;42.548;22.968;2023-11-21T11:18:29;93391.72;;;8.87;81.89
10518;BME280;5307;42.548;22.968;2023-11-21T11:21:00;93411.97;;;8.86;83.56
10518;BME280;5307;42.548;22.968;2023-11-21T11:23:40;93399.06;;;8.78;84.48
10518;BME280;5307;42.548;22.968;2023-11-21T11:26:19;93393.78;;;8.74;85.75
10518;BME280;5307;42.548;22.968;2023-11-21T11:28:59;93381.53;;;8.79;85.06
10518;BME280;5307;42.548;22.968;2023-11-21T11:31:39;93370.47;;;8.73;84.93
10518;BME280;5307;42.548;22.968;2023-11-21T11:34:19;93368.06;;;8.75;85.40
10518;BME280;5307;42.548;22.968;2023-11-21T11:36:55;93371.41;;;8.79;85.79
10518;BME280;5307;42.548;22.968;2023-11-21T11:39:29;93366.25;;;8.81;86.65
10518;BME280;5307;42.548;22.968;2023-11-21T11:41:56;93366.00;;;8.88;87.38
10518;BME280;5307;42.548;22.968;2023-11-21T11:44:46;93372.22;;;8.89;86.67
10518;BME280;5307;42.548;22.968;2023-11-21T11:47:16;93370.09;;;8.93;86.61
10518;BME280;5307;42.548;22.968;2023-11-21T11:49:57;93360.13;;;8.99;90.01
10518;BME280;5307;42.548;22.968;2023-11-21T11:52:34;93353.91;;;8.99;87.71
10518;BME280;5307;42.548;22.968;2023-11-21T11:55:02;93360.75;;;9.03;86.05
10518;BME280;5307;42.548;22.968;2023-11-21T11:57:30;93351.38;;;9.04;86.46
10518;BME280;5307;42.548;22.968;2023-11-21T12:00:14;93354.84;;;9.05;85.45
10518;BME280;5307;42.548;22.968;2023-11-21T12:02:51;93346.41;;;9.12;86.38
10518;BME280;5307;42.548;22.968;2023-11-21T12:05:21;93346.69;;;9.05;87.53
10518;BME280;5307;42.548;22.968;2023-11-21T12:07:50;93344.31;;;9.16;88.13
10518;BME280;5307;42.548;22.968;2023-11-21T12:10:20;93333.72;;;9.18;88.89
10518;BME280;5307;42.548;22.968;2023-11-21T12:12:48;93333.25;;;9.19;88.09
10518;BME280;5307;42.548;22.968;2023-11-21T12:15:16;93335.97;;;9.19;87.08
10518;BME280;5307;42.548;22.968;2023-11-21T12:17:44;93339.47;;;9.20;85.81
10518;BME280;5307;42.548;22.968;2023-11-21T12:20:12;93338.41;;;9.17;85.33
10518;BME280;5307;42.548;22.968;2023-11-21T12:22:46;93335.22;;;9.19;84.64
10518;BME280;5307;42.548;22.968;2023-11-21T12:25:16;93321.91;;;9.21;84.05
10518;BME280;5307;42.548;22.968;2023-11-21T12:27:44;93327.22;;;9.25;84.16
10518;BME280;5307;42.548;22.968;2023-11-21T12:30:34;93327.97;;;9.25;82.93
10518;BME280;5307;42.548;22.968;2023-11-21T12:33:02;93315.41;;;9.28;82.90
10518;BME280;5307;42.548;22.968;2023-11-21T12:35:30;93309.81;;;9.31;82.60
10518;BME280;5307;42.548;22.968;2023-11-21T12:38:01;93313.31;;;9.32;82.89
10518;BME280;5307;42.548;22.968;2023-11-21T12:40:29;93303.00;;;9.36;82.97
10518;BME280;5307;42.548;22.968;2023-11-21T12:42:56;93303.16;;;9.41;82.47
10518;BME280;5307;42.548;22.968;2023-11-21T12:45:25;93301.19;;;9.42;82.61
10518;BME280;5307;42.548;22.968;2023-11-21T12:47:55;93299.22;;;9.51;82.20
10518;BME280;5307;42.548;22.968;2023-11-21T12:50:23;93295.13;;;9.56;81.90
10518;BME280;5307;42.548;22.968;2023-11-21T12:52:57;93308.19;;;9.61;81.81
10518;BME280;5307;42.548;22.968;2023-11-21T12:55:26;93296.53;;;9.61;80.57
10518;BME280;5307;42.548;22.968;2023-11-21T12:57:56;93286.22;;;9.65;79.98
10518;BME280;5307;42.548;22.968;2023-11-21T13:00:28;93289.69;;;9.65;79.16
10518;BME280;5307;42.548;22.968;2023-11-21T13:02:58;93280.47;;;9.63;78.32
10518;BME280;5307;42.548;22.968;2023-11-21T13:05:29;93288.94;;;9.65;78.65
10518;BME280;5307;42.548;22.968;2023-11-21T13:07:57;93282.28;;;9.66;78.98
10518;BME280;5307;42.548;22.968;2023-11-21T13:10:27;93286.22;;;9.65;77.96